CPH9 weather

Fordwich Airport
Fordwich, Ontario, Canada

Public forecast

Using degrees Celsius for public forecast. Weather courtesy of forecast.io.

Closest aviation weather report (METAR) to Fordwich Airport

Closest report is Waterloo Airport, 37.1 nm (68.7 km) SE. Retrieved 2019/11/13 19:00 UTC (9 minutes ago):

CYKF 131900Z AUTO 20007KT 9SM OVC055 M05/M10 A3029 RMK SLP277

Closest aviation forecast (TAF) to Fordwich Airport

Closest forecast is Waterloo Airport, 37.1 nm (68.7 km) SE. Retrieved 2019/11/13 20:42 UTC (0 seconds ago):

TAF TAF CYKF 131939Z 1320/1408 18008KT P6SM SCT020 OVC070 TEMPO 1320/1322 P6SM -SN BKN020 OVC070 FM132200 15007KT 6SM -SN BKN025 OVC080 TEMPO 1322/1324 3SM -SN OVC015 FM140000 15012KT 2SM -SN OVC015 TEMPO 1400/1403 P6SM -SN SCT015 OVC070 FM140300 17012KT P6SM -SHSN BKN020 OVC070 TEMPO 1403/1407 P6SM NSW SCT020 OVC070 FM140700 23012G22KT 3SM -SN OVC030 TEMPO 1407/1408 6SM -SN PROB40 1407/1408 11/2SM -SN RMK FCST BASED ON AUTO OBS NXT FCST BY 140200Z